< < Back
Terminal Aerodrome Forecast


Current Version              Previous Versions:   1  2  3  4  5  6  7  8  9  

Terminal Aerodrome Forecast

827
FTUS42 KGSP 280847 AAB
TAFGSP
TAF AMD
KGSP 280847Z 2809/2906 21004KT P6SM SCT002 BKN016
      TEMPO 2809/2813 4SM BR BKN002
     FM281300 35005KT P6SM -SHRA VCTS BKN035CB
     FM281900 03004KT P6SM BKN100
     FM290000 20004KT P6SM BKN250=

Latest METAR

828
SAUS70 KWBC 282200 RRX
MTRGSP
METAR KGSP 282153Z 11005KT 10SM CLR 28/17 A2997 RMK AO2 SLP135
T02830167


USA.gov is the U.S. government's official web portal to all federal, state and local government web resources and services.